Time;durP1;ratioP1;P1;durP2;ratioP2;P2;SDS_P1;SDS_P2;PMS_P1;PMS_P2;Temp;Humidity;BMP_temperature;BMP_pressure;BME280_temperature;BME280_humidity;BME280_pressure;Samples;Min_cycle;Max_cycle;Signal;HPM_P1;HPM_P2
2021/12/01 00:01:02;;;;;;;;;;;5.40;99.90;;;;;;5093981;28;20179;-60
2021/12/01 00:03:27;;;;;;;;;;;5.40;99.90;;;;;;5078292;28;19905;-60
2021/12/01 00:05:53;;;;;;;;;;;5.40;99.90;;;;;;5077894;28;19919;-57
2021/12/01 00:08:19;;;;;;;;;;;5.50;99.90;;;;;;5076944;28;20490;-57
2021/12/01 00:10:45;;;;;;;;;;;5.50;99.90;;;;;;5074054;28;20002;-59
2021/12/01 00:13:13;;;;;;;;;;;5.50;99.90;;;;;;5075767;28;19912;-59
2021/12/01 00:15:39;;;;;;;;;;;5.60;99.90;;;;;;5073709;28;20425;-58
2021/12/01 00:18:05;;;;;;;;;;;5.50;99.90;;;;;;5073279;28;19995;-60
2021/12/01 00:20:30;;;;;;;;;;;5.50;99.90;;;;;;5091333;28;20432;-60
2021/12/01 00:22:56;;;;;;;;;;;5.60;99.90;;;;;;5074122;28;20245;-60
2021/12/01 00:25:23;;;;;;;;;;;5.60;99.90;;;;;;5076395;28;19904;-60
2021/12/01 00:27:52;;;;;;;;;;;5.50;99.90;;;;;;5076378;28;20265;-59
2021/12/01 00:30:18;;;;;;;;;;;5.50;99.90;;;;;;5076829;28;19904;-60
2021/12/01 00:32:44;;;;;;;;;;;5.60;99.90;;;;;;5075659;28;20045;-60
2021/12/01 00:35:10;;;;;;;;;;;5.60;99.90;;;;;;5077163;28;20188;-59
2021/12/01 00:37:38;;;;;;;;;;;5.60;99.90;;;;;;5077330;28;20256;-60
2021/12/01 00:40:05;;;;;;;;;;;5.60;99.90;;;;;;5075551;28;19912;-60
2021/12/01 00:42:30;;;;;;;;;;;5.60;99.90;;;;;;5075093;28;19912;-60
2021/12/01 00:44:59;;;;;;;;;;;5.60;99.90;;;;;;5075446;28;19927;-60
2021/12/01 00:47:44;;;;;;;;;;;5.60;99.90;;;;;;5077327;28;19905;-59
2021/12/01 00:50:16;;;;;;;;;;;5.70;99.90;;;;;;5076137;28;19904;-58
2021/12/01 00:52:41;;;;;;;;;;;5.60;99.90;;;;;;5075907;28;19916;-60
2021/12/01 00:55:07;;;;;;;;;;;5.60;99.90;;;;;;5076097;28;19908;-59
2021/12/01 00:57:33;;;;;;;;;;;5.60;99.90;;;;;;5077675;28;19923;-61
2021/12/01 00:59:59;;;;;;;;;;;5.60;99.90;;;;;;5077428;28;20071;-61
2021/12/01 01:02:24;;;;;;;;;;;5.60;99.90;;;;;;5076776;28;19905;-60
2021/12/01 01:04:50;;;;;;;;;;;5.50;99.90;;;;;;5077205;28;19915;-60
2021/12/01 01:07:15;;;;;;;;;;;5.50;99.90;;;;;;5077786;28;19948;-59
2021/12/01 01:09:43;;;;;;;;;;;5.50;99.90;;;;;;5078708;28;19935;-60
2021/12/01 01:17:38;;;;;;;;;;;5.50;99.90;;;;;;5078023;28;19965;-58
2021/12/01 01:20:12;;;;;;;;;;;5.50;99.90;;;;;;5078740;28;19908;-60
2021/12/01 01:22:39;;;;;;;;;;;5.50;99.90;;;;;;5076629;28;19904;-60
2021/12/01 01:25:05;;;;;;;;;;;5.50;99.90;;;;;;5075685;28;20329;-59
2021/12/01 01:27:31;;;;;;;;;;;5.50;99.90;;;;;;5074550;28;20272;-59
2021/12/01 01:29:57;;;;;;;;;;;5.50;99.90;;;;;;5077036;28;20194;-60
2021/12/01 01:32:22;;;;;;;;;;;5.50;99.90;;;;;;5075466;28;20477;-60
2021/12/01 01:34:48;;;;;;;;;;;5.50;99.90;;;;;;5074193;28;19908;-61
2021/12/01 01:37:13;;;;;;;;;;;5.50;99.90;;;;;;5073813;28;19904;-61
2021/12/01 01:39:39;;;;;;;;;;;5.50;99.90;;;;;;5075025;28;19904;-60
2021/12/01 01:42:04;;;;;;;;;;;5.40;99.90;;;;;;5074772;28;19939;-60
2021/12/01 01:44:31;;;;;;;;;;;5.50;99.90;;;;;;5074740;28;19905;-61
2021/12/01 01:46:57;;;;;;;;;;;5.40;99.90;;;;;;5075691;28;19944;-59
2021/12/01 01:49:35;;;;;;;;;;;5.40;99.90;;;;;;5076604;28;19951;-61
2021/12/01 01:52:01;;;;;;;;;;;5.50;99.90;;;;;;5075342;28;19943;-60
2021/12/01 01:54:26;;;;;;;;;;;5.40;99.90;;;;;;5075688;28;19955;-60
2021/12/01 01:56:52;;;;;;;;;;;5.40;99.90;;;;;;5075190;28;20062;-60
2021/12/01 01:59:17;;;;;;;;;;;5.40;99.90;;;;;;5092809;28;19908;-61
2021/12/01 02:01:46;;;;;;;;;;;5.30;99.90;;;;;;5075636;28;19904;-61
2021/12/01 02:04:15;;;;;;;;;;;5.30;99.90;;;;;;5075990;28;19912;-61
2021/12/01 02:06:41;;;;;;;;;;;5.30;99.90;;;;;;5076361;28;19915;-61
2021/12/01 02:09:07;;;;;;;;;;;5.30;99.90;;;;;;5075454;28;20230;-61
2021/12/01 02:11:33;;;;;;;;;;;5.40;99.90;;;;;;5074101;28;20492;-58
2021/12/01 02:13:59;;;;;;;;;;;5.30;99.90;;;;;;5074676;28;19916;-61
2021/12/01 02:16:24;;;;;;;;;;;5.40;99.90;;;;;;5074935;28;19916;-61
2021/12/01 02:18:50;;;;;;;;;;;5.40;99.90;;;;;;5075887;28;20057;-61
2021/12/01 02:21:16;;;;;;;;;;;5.30;99.90;;;;;;5092818;28;19969;-61
2021/12/01 02:23:42;;;;;;;;;;;5.40;99.90;;;;;;5075520;28;20013;-60
2021/12/01 02:26:08;;;;;;;;;;;5.40;99.90;;;;;;5076202;28;19954;-60
2021/12/01 02:28:34;;;;;;;;;;;5.40;99.90;;;;;;5076937;28;19912;-59
2021/12/01 02:31:00;;;;;;;;;;;5.40;99.90;;;;;;5092355;28;19908;-60
2021/12/01 02:33:25;;;;;;;;;;;5.40;99.90;;;;;;5075622;28;19908;-60
2021/12/01 02:35:51;;;;;;;;;;;5.50;99.90;;;;;;5077695;28;19904;-61
2021/12/01 02:38:17;;;;;;;;;;;5.50;99.90;;;;;;5076286;28;20264;-61
2021/12/01 02:40:43;;;;;;;;;;;5.50;99.90;;;;;;5076301;28;20005;-60
2021/12/01 02:43:09;;;;;;;;;;;5.50;99.90;;;;;;5074972;28;19958;-61
2021/12/01 02:45:34;;;;;;;;;;;5.50;99.90;;;;;;5076066;28;19998;-61
2021/12/01 02:48:00;;;;;;;;;;;5.50;99.90;;;;;;5077252;28;19904;-59
2021/12/01 02:50:26;;;;;;;;;;;5.50;99.90;;;;;;5076845;28;19904;-60
2021/12/01 02:52:52;;;;;;;;;;;5.50;99.90;;;;;;5077232;28;19905;-59
2021/12/01 02:55:18;;;;;;;;;;;5.50;99.90;;;;;;5077127;28;19919;-60
2021/12/01 02:57:51;;;;;;;;;;;5.50;99.90;;;;;;5074973;28;19912;-60
2021/12/01 03:00:17;;;;;;;;;;;5.50;99.90;;;;;;5075789;28;19912;-61
2021/12/01 03:02:43;;;;;;;;;;;5.40;99.90;;;;;;5090435;28;19905;-59
2021/12/01 03:05:09;;;;;;;;;;;5.40;99.90;;;;;;5073841;28;19936;-60
2021/12/01 03:07:36;;;;;;;;;;;5.50;99.90;;;;;;5073183;28;19911;-58
2021/12/01 03:10:02;;;;;;;;;;;5.40;99.90;;;;;;5072862;28;19904;-59
2021/12/01 03:12:32;;;;;;;;;;;5.50;99.90;;;;;;5073878;28;19913;-59
2021/12/01 03:14:58;;;;;;;;;;;5.40;99.90;;;;;;5074669;28;19948;-62
2021/12/01 03:17:27;;;;;;;;;;;5.40;99.90;;;;;;5075301;28;19959;-57
2021/12/01 03:19:53;;;;;;;;;;;5.50;99.90;;;;;;5092944;28;19908;-58
2021/12/01 03:22:19;;;;;;;;;;;5.50;99.90;;;;;;5075769;28;19940;-57
2021/12/01 03:24:45;;;;;;;;;;;5.40;99.90;;;;;;5076091;28;19947;-53
2021/12/01 03:27:10;;;;;;;;;;;5.50;99.90;;;;;;5076108;28;19908;-59
2021/12/01 03:29:37;;;;;;;;;;;5.50;99.90;;;;;;5076886;28;19911;-59
2021/12/01 03:32:06;;;;;;;;;;;5.50;99.90;;;;;;5077607;28;19904;-59
2021/12/01 03:34:32;;;;;;;;;;;5.50;99.90;;;;;;5077471;28;19951;-59
2021/12/01 03:36:59;;;;;;;;;;;5.60;99.90;;;;;;5076462;28;19951;-62
2021/12/01 03:39:25;;;;;;;;;;;5.60;99.90;;;;;;5077100;28;19923;-59
2021/12/01 03:41:51;;;;;;;;;;;5.60;99.90;;;;;;5076541;28;19912;-59
2021/12/01 03:44:18;;;;;;;;;;;5.60;99.90;;;;;;5076040;28;19998;-57
2021/12/01 03:46:45;;;;;;;;;;;5.60;99.90;;;;;;5076793;28;20426;-58
2021/12/01 03:49:12;;;;;;;;;;;5.60;99.90;;;;;;5077809;28;19904;-55
2021/12/01 03:51:39;;;;;;;;;;;5.60;99.90;;;;;;5079713;28;20058;-58
2021/12/01 03:54:05;;;;;;;;;;;5.60;99.90;;;;;;5078950;28;19981;-59
2021/12/01 03:56:33;;;;;;;;;;;5.60;99.90;;;;;;5080522;28;20432;-58
2021/12/01 03:59:01;;;;;;;;;;;5.60;99.90;;;;;;5080040;28;19904;-59
2021/12/01 04:01:28;;;;;;;;;;;5.60;99.90;;;;;;5080394;28;19915;-59
2021/12/01 04:03:53;;;;;;;;;;;5.60;99.90;;;;;;5079990;28;20328;-59
2021/12/01 04:06:20;;;;;;;;;;;5.60;99.90;;;;;;5080455;28;19908;-59
2021/12/01 04:08:47;;;;;;;;;;;5.60;99.90;;;;;;5080092;28;20227;-58
2021/12/01 04:11:14;;;;;;;;;;;5.60;99.90;;;;;;5080236;28;19908;-58
2021/12/01 04:13:40;;;;;;;;;;;5.60;99.90;;;;;;5079749;28;19908;-57
2021/12/01 04:16:06;;;;;;;;;;;5.60;99.90;;;;;;5079082;28;19919;-59
2021/12/01 04:18:32;;;;;;;;;;;5.60;99.90;;;;;;5079851;28;19905;-59
2021/12/01 04:20:59;;;;;;;;;;;5.60;99.90;;;;;;5078619;28;20487;-59
2021/12/01 04:23:25;;;;;;;;;;;5.70;99.90;;;;;;5078337;28;19935;-57
2021/12/01 04:25:52;;;;;;;;;;;5.70;99.90;;;;;;5077798;28;20257;-59
2021/12/01 04:28:18;;;;;;;;;;;5.70;99.90;;;;;;5076022;28;20237;-59
2021/12/01 04:30:43;;;;;;;;;;;5.60;99.90;;;;;;5077254;28;20363;-59
2021/12/01 04:33:09;;;;;;;;;;;5.70;99.90;;;;;;5076230;28;19924;-60
2021/12/01 04:35:34;;;;;;;;;;;5.70;99.90;;;;;;5078149;28;19912;-59
2021/12/01 04:38:00;;;;;;;;;;;5.70;99.90;;;;;;5077785;28;19904;-59
2021/12/01 04:40:26;;;;;;;;;;;5.70;99.90;;;;;;5077219;28;19969;-58
2021/12/01 04:42:52;;;;;;;;;;;5.70;99.90;;;;;;5078057;28;20056;-59
2021/12/01 04:45:19;;;;;;;;;;;5.70;99.90;;;;;;5076775;28;19905;-58
2021/12/01 04:47:46;;;;;;;;;;;5.70;99.90;;;;;;5077439;28;20288;-59
2021/12/01 04:50:12;;;;;;;;;;;5.70;99.90;;;;;;5075293;28;20184;-59
2021/12/01 04:52:38;;;;;;;;;;;5.70;99.90;;;;;;5076218;28;19904;-59
2021/12/01 04:55:04;;;;;;;;;;;5.70;99.90;;;;;;5074902;28;19919;-58
2021/12/01 04:57:30;;;;;;;;;;;5.70;99.90;;;;;;5074904;28;19971;-59
2021/12/01 04:59:55;;;;;;;;;;;5.80;99.90;;;;;;5075400;28;20236;-60
2021/12/01 05:02:21;;;;;;;;;;;5.80;99.90;;;;;;5074117;28;19905;-59
2021/12/01 05:04:46;;;;;;;;;;;5.80;99.90;;;;;;5074641;28;19908;-59
2021/12/01 05:07:13;;;;;;;;;;;5.80;99.90;;;;;;5074053;28;20010;-59
2021/12/01 05:09:39;;;;;;;;;;;5.80;99.90;;;;;;5073343;28;19904;-60
2021/12/01 05:12:07;;;;;;;;;;;5.80;99.90;;;;;;5074008;28;19994;-59
2021/12/01 05:14:37;;;;;;;;;;;5.80;99.90;;;;;;5070298;28;20308;-59
2021/12/01 05:17:03;;;;;;;;;;;5.80;99.90;;;;;;5071705;28;20345;-58
2021/12/01 05:19:28;;;;;;;;;;;5.80;99.90;;;;;;5073772;28;19920;-60
2021/12/01 05:21:54;;;;;;;;;;;5.80;99.90;;;;;;5073040;28;20002;-59
2021/12/01 05:24:27;;;;;;;;;;;5.90;99.90;;;;;;5073610;28;19905;-59
2021/12/01 05:26:53;;;;;;;;;;;5.90;99.90;;;;;;5075946;28;19905;-59
2021/12/01 05:29:20;;;;;;;;;;;5.90;99.90;;;;;;5077299;28;19924;-60
2021/12/01 05:31:46;;;;;;;;;;;5.90;99.90;;;;;;5070909;28;19951;-58
2021/12/01 05:34:11;;;;;;;;;;;5.90;99.90;;;;;;5069441;28;20171;-60
2021/12/01 05:36:37;;;;;;;;;;;6.00;99.90;;;;;;5069645;28;20070;-60
2021/12/01 05:39:03;;;;;;;;;;;6.00;99.90;;;;;;5070891;28;19904;-59
2021/12/01 05:41:28;;;;;;;;;;;6.00;99.90;;;;;;5072797;28;19904;-59
2021/12/01 05:43:54;;;;;;;;;;;6.00;99.90;;;;;;5072394;28;19916;-58
2021/12/01 05:46:19;;;;;;;;;;;6.10;99.90;;;;;;5072788;28;19974;-60
2021/12/01 05:48:45;;;;;;;;;;;6.10;99.90;;;;;;5074233;28;19917;-59
2021/12/01 05:51:11;;;;;;;;;;;6.10;99.90;;;;;;5071693;28;19904;-58
2021/12/01 05:53:36;;;;;;;;;;;6.20;99.90;;;;;;5072834;28;20207;-58
2021/12/01 05:56:03;;;;;;;;;;;6.20;99.90;;;;;;5073198;28;19904;-58
2021/12/01 05:58:28;;;;;;;;;;;6.30;99.90;;;;;;5072117;28;19904;-59
2021/12/01 06:00:54;;;;;;;;;;;6.30;99.90;;;;;;5072382;28;19931;-59
2021/12/01 06:03:19;;;;;;;;;;;6.40;99.90;;;;;;5071374;28;19943;-58
2021/12/01 06:05:45;;;;;;;;;;;6.40;99.90;;;;;;5072054;28;19905;-59
2021/12/01 06:08:11;;;;;;;;;;;6.40;99.90;;;;;;5071919;28;20002;-60
2021/12/01 06:10:36;;;;;;;;;;;6.40;99.90;;;;;;5071261;28;19904;-58
2021/12/01 06:13:02;;;;;;;;;;;6.50;99.90;;;;;;5069988;28;19904;-60
2021/12/01 06:15:30;;;;;;;;;;;6.50;99.90;;;;;;5068668;28;19919;-59
2021/12/01 06:17:58;;;;;;;;;;;6.50;99.90;;;;;;5070762;28;20040;-59
2021/12/01 06:20:24;;;;;;;;;;;6.60;99.90;;;;;;5068490;28;19912;-59
2021/12/01 06:22:52;;;;;;;;;;;6.70;99.90;;;;;;5066439;28;20080;-59
2021/12/01 06:25:18;;;;;;;;;;;6.70;99.90;;;;;;5067307;28;20289;-60
2021/12/01 06:27:43;;;;;;;;;;;6.80;99.90;;;;;;5070103;28;19904;-60
2021/12/01 06:30:09;;;;;;;;;;;6.80;99.90;;;;;;5071471;28;20002;-60
2021/12/01 06:32:35;;;;;;;;;;;6.90;99.90;;;;;;5072964;28;19979;-59
2021/12/01 06:35:01;;;;;;;;;;;7.00;99.90;;;;;;5073638;28;19939;-59
2021/12/01 06:37:26;;;;;;;;;;;7.10;99.90;;;;;;5073863;28;19944;-58
2021/12/01 06:39:52;;;;;;;;;;;7.20;99.90;;;;;;5071751;28;19915;-59
2021/12/01 06:42:17;;;;;;;;;;;7.30;99.90;;;;;;5071183;28;20327;-58
2021/12/01 06:44:43;;;;;;;;;;;7.30;99.90;;;;;;5070764;28;19966;-59
2021/12/01 06:47:08;;;;;;;;;;;7.50;99.90;;;;;;5068935;28;19904;-57
2021/12/01 06:49:34;;;;;;;;;;;7.70;99.90;;;;;;5068731;28;20215;-58
2021/12/01 06:51:59;;;;;;;;;;;7.90;99.90;;;;;;5069077;28;19928;-62
2021/12/01 06:54:25;;;;;;;;;;;8.00;99.90;;;;;;5070667;28;19920;-62
2021/12/01 06:56:51;;;;;;;;;;;8.10;99.90;;;;;;5068517;28;20176;-59
2021/12/01 06:59:16;;;;;;;;;;;8.10;99.90;;;;;;5069060;28;20284;-59
2021/12/01 07:01:42;;;;;;;;;;;8.10;99.90;;;;;;5069324;28;19904;-58
2021/12/01 07:04:07;;;;;;;;;;;8.20;99.90;;;;;;5071522;28;19977;-59
2021/12/01 07:06:33;;;;;;;;;;;8.20;99.90;;;;;;5071899;28;19905;-59
2021/12/01 07:09:02;;;;;;;;;;;8.30;99.90;;;;;;5069231;28;19904;-60
2021/12/01 07:11:28;;;;;;;;;;;8.30;99.90;;;;;;5069903;28;19943;-61
2021/12/01 07:13:54;;;;;;;;;;;8.30;99.90;;;;;;5068612;28;20147;-59
2021/12/01 07:16:19;;;;;;;;;;;8.30;99.90;;;;;;5071544;28;19928;-61
2021/12/01 07:18:45;;;;;;;;;;;8.30;99.90;;;;;;5071284;28;19986;-60
2021/12/01 07:21:11;;;;;;;;;;;8.30;99.90;;;;;;5070866;28;19969;-60
2021/12/01 07:23:36;;;;;;;;;;;8.30;99.90;;;;;;5067814;28;19904;-60
2021/12/01 07:26:02;;;;;;;;;;;8.30;99.90;;;;;;5074518;28;20430;-61
2021/12/01 07:28:29;;;;;;;;;;;8.40;99.90;;;;;;5074094;28;19908;-59
2021/12/01 07:30:55;;;;;;;;;;;8.30;99.90;;;;;;5079698;28;19908;-60
2021/12/01 07:33:21;;;;;;;;;;;8.40;99.90;;;;;;5078606;28;20166;-61
2021/12/01 07:35:46;;;;;;;;;;;8.40;99.90;;;;;;5074219;28;19904;-60
2021/12/01 07:38:13;;;;;;;;;;;8.40;99.90;;;;;;5073281;28;19904;-61
2021/12/01 07:40:38;;;;;;;;;;;8.40;99.90;;;;;;5072107;28;19904;-61
2021/12/01 07:43:04;;;;;;;;;;;8.50;99.90;;;;;;5071043;28;20078;-61
2021/12/01 07:45:29;;;;;;;;;;;8.40;99.90;;;;;;5070203;28;19904;-61
2021/12/01 07:47:55;;;;;;;;;;;8.40;99.90;;;;;;5074144;28;19913;-60
2021/12/01 07:50:21;;;;;;;;;;;8.30;99.90;;;;;;5074284;28;19912;-61
2021/12/01 07:52:46;;;;;;;;;;;8.30;99.90;;;;;;5074407;28;20148;-61
2021/12/01 07:55:12;;;;;;;;;;;8.30;99.90;;;;;;5074522;28;19919;-61
2021/12/01 07:57:38;;;;;;;;;;;8.30;99.90;;;;;;5073450;28;19904;-60
2021/12/01 08:00:04;;;;;;;;;;;8.30;99.90;;;;;;5074600;28;20006;-61
2021/12/01 08:02:29;;;;;;;;;;;8.30;99.90;;;;;;5074993;28;20407;-61
2021/12/01 08:04:57;;;;;;;;;;;8.20;99.90;;;;;;5074468;28;19995;-61
2021/12/01 08:07:23;;;;;;;;;;;8.20;99.90;;;;;;5073559;28;19958;-60
2021/12/01 08:09:48;;;;;;;;;;;8.20;99.90;;;;;;5072770;28;20139;-61
2021/12/01 08:12:14;;;;;;;;;;;8.20;99.90;;;;;;5071770;28;19905;-61
2021/12/01 08:14:40;;;;;;;;;;;8.30;99.90;;;;;;5069928;28;20009;-61
2021/12/01 08:17:05;;;;;;;;;;;8.20;99.90;;;;;;5069585;28;19970;-61
2021/12/01 08:19:31;;;;;;;;;;;8.30;99.90;;;;;;5068497;28;19916;-61
2021/12/01 08:21:56;;;;;;;;;;;8.30;99.90;;;;;;5071306;28;19904;-61
2021/12/01 08:24:22;;;;;;;;;;;8.20;99.90;;;;;;5069956;28;20344;-61
2021/12/01 08:26:48;;;;;;;;;;;8.30;99.90;;;;;;5068548;28;19915;-61
2021/12/01 08:29:14;;;;;;;3.27;2.97;;;8.30;99.90;;;;;;5067130;28;20186;-61
2021/12/01 08:31:40;;;;;;;3.72;3.33;;;8.30;99.90;;;;;;5065905;28;20391;-61
2021/12/01 08:34:06;;;;;;;3.70;3.40;;;8.30;99.90;;;;;;5066525;28;20412;-61
2021/12/01 08:36:32;;;;;;;3.03;2.83;;;8.30;99.90;;;;;;5062653;28;20888;-60
2021/12/01 08:38:57;;;;;;;2.90;2.70;;;8.30;99.90;;;;;;5067123;28;20498;-61
2021/12/01 08:41:23;;;;;;;2.97;2.70;;;8.30;99.90;;;;;;5067449;28;20383;-61
2021/12/01 08:43:49;;;;;;;2.50;2.30;;;8.30;99.90;;;;;;5065080;28;20899;-61
2021/12/01 08:46:15;;;;;;;2.83;2.63;;;8.30;99.90;;;;;;5063510;28;20406;-61
2021/12/01 08:48:41;;;;;;;2.70;2.50;;;8.40;99.90;;;;;;5066136;28;20410;-61
2021/12/01 08:51:07;;;;;;;3.63;2.28;;;8.40;99.90;;;;;;5066187;28;20479;-59
2021/12/01 08:53:36;;;;;;;2.50;2.30;;;8.40;99.90;;;;;;5065160;28;20395;-62
2021/12/01 08:56:03;;;;;;;3.00;2.67;;;8.30;99.90;;;;;;5067572;28;20380;-62
2021/12/01 08:58:29;;;;;;;3.00;2.00;;;8.30;99.90;;;;;;5065538;28;20567;-62
2021/12/01 09:00:55;;;;;;;2.30;2.00;;;8.30;99.90;;;;;;5068368;28;20776;-62
2021/12/01 09:03:23;;;;;;;2.53;2.30;;;8.40;99.90;;;;;;5068858;28;20241;-62
2021/12/01 09:05:49;;;;;;;5.30;2.30;;;8.40;99.90;;;;;;5067250;28;20569;-62
2021/12/01 09:08:17;;;;;;;2.50;2.30;;;8.30;99.90;;;;;;5068782;28;20541;-62
2021/12/01 09:10:43;;;;;;;3.20;2.90;;;8.30;99.90;;;;;;5067842;28;20394;-60
2021/12/01 09:13:09;;;;;;;3.08;2.80;;;8.40;99.90;;;;;;5067371;28;20380;-60
2021/12/01 09:15:37;;;;;;;5.20;2.80;;;8.40;99.90;;;;;;5069973;28;20402;-61
2021/12/01 09:18:03;;;;;;;;;;;8.40;99.90;;;;;;5073672;28;20128;-61
2021/12/01 09:20:30;;;;;;;3.10;2.80;;;8.40;99.90;;;;;;5073652;28;20285;-61
2021/12/01 09:22:57;;;;;;;3.03;2.67;;;8.30;99.90;;;;;;5074806;28;20208;-60
2021/12/01 09:25:23;;;;;;;3.03;2.77;;;8.30;99.90;;;;;;5073949;28;20274;-60
2021/12/01 09:27:50;;;;;;;2.50;2.30;;;8.30;99.90;;;;;;5074706;28;20284;-64
2021/12/01 09:30:18;;;;;;;5.32;3.13;;;8.40;99.90;;;;;;5073584;28;20407;-64
2021/12/01 09:32:44;;;;;;;3.00;2.80;;;8.50;99.90;;;;;;5073582;28;20688;-61
2021/12/01 09:35:13;;;;;;;2.85;2.55;;;8.50;99.90;;;;;;5039071;28;20702;-60
2021/12/01 09:37:39;;;;;;;3.25;2.40;;;8.40;99.90;;;;;;5072934;28;20384;-60
2021/12/01 09:40:13;;;;;;;3.53;2.22;;;8.40;99.90;;;;;;5056171;28;20384;-60
2021/12/01 09:42:51;;;;;;;2.75;2.40;;;8.40;99.90;;;;;;5054913;28;20400;-60
2021/12/01 09:45:20;;;;;;;2.03;1.83;;;8.40;99.90;;;;;;5071747;28;20492;-61
2021/12/01 09:47:49;;;;;;;2.30;1.90;;;8.40;99.90;;;;;;5055383;28;20398;-61
2021/12/01 09:50:17;;;;;;;1.60;1.50;;;8.40;99.90;;;;;;5073245;28;20831;-60
2021/12/01 09:52:45;;;;;;;1.80;1.70;;;8.40;99.90;;;;;;5072834;28;20656;-58
2021/12/01 09:55:13;;;;;;;1.77;1.67;;;8.40;99.90;;;;;;5055285;28;20412;-59
2021/12/01 09:58:05;;;;;;;2.20;1.60;;;8.40;99.90;;;;;;5073972;28;20391;-58
2021/12/01 10:00:35;;;;;;;1.70;1.60;;;8.40;99.90;;;;;;5054527;28;20739;-59
2021/12/01 10:03:03;;;;;;;1.33;1.23;;;8.50;99.90;;;;;;5066502;28;20831;-60
2021/12/01 10:06:02;;;;;;;1.77;1.40;;;8.50;99.90;;;;;;5054888;28;20201;-59
2021/12/01 10:08:40;;;;;;;1.40;1.30;;;8.50;99.90;;;;;;5054689;28;20188;-60
2021/12/01 10:11:11;;;;;;;1.30;1.20;;;8.60;99.90;;;;;;5071039;28;20192;-58
2021/12/01 10:13:50;;;;;;;1.30;1.20;;;8.60;99.90;;;;;;5070261;28;20278;-58
2021/12/01 10:16:19;;;;;;;3.63;1.43;;;8.50;99.90;;;;;;5068424;28;20244;-61
2021/12/01 10:18:55;;;;;;;1.53;1.20;;;8.50;99.90;;;;;;5067817;28;20751;-60
2021/12/01 10:21:40;;;;;;;1.60;1.50;;;8.60;99.90;;;;;;5050480;28;20195;-60
2021/12/01 10:24:16;;;;;;;3.77;1.30;;;8.50;99.90;;;;;;5067970;28;20276;-60
2021/12/01 10:26:46;;;;;;;1.70;1.60;;;8.60;99.90;;;;;;5066994;28;20173;-61
2021/12/01 10:29:22;;;;;;;1.40;1.30;;;8.50;99.90;;;;;;5051477;28;20260;-60
2021/12/01 10:32:00;;;;;;;1.60;1.50;;;8.60;99.90;;;;;;5067982;28;20183;-61
2021/12/01 10:34:35;;;;;;;1.17;1.17;;;8.60;99.90;;;;;;5069792;28;20204;-60
2021/12/01 10:37:15;;;;;;;1.57;1.47;;;8.60;99.90;;;;;;5052767;28;20169;-60
2021/12/01 10:39:42;;;;;;;;;;;;;;;;;;5068939;28;20080;-57
2021/12/01 10:42:12;;;;;;;;;;;8.60;99.90;;;;;;5067906;28;19974;-60
2021/12/01 10:44:53;;;;;;;;;;;8.60;99.90;;;;;;5052498;28;20231;-61
2021/12/01 10:47:19;;;;;;;;;;;8.50;99.90;;;;;;5068670;28;19909;-60
2021/12/01 10:49:47;;;;;;;;;;;8.50;99.90;;;;;;5068268;28;19916;-60
2021/12/01 10:52:28;;;;;;;;;;;8.50;99.90;;;;;;5067637;28;19905;-61
2021/12/01 10:55:13;;;;;;;;;;;8.50;99.90;;;;;;5068951;28;19975;-61
2021/12/01 10:57:43;;;;;;;;;;;8.50;99.90;;;;;;5068817;28;19958;-60
2021/12/01 11:00:22;;;;;;;;;;;8.60;99.90;;;;;;5053443;28;19990;-59
2021/12/01 11:02:50;;;;;;;;;;;8.60;99.90;;;;;;5066129;28;20007;-61
2021/12/01 11:05:27;;;;;;;;;;;8.50;99.90;;;;;;5066303;28;20488;-58
2021/12/01 11:07:54;;;;;;;;;;;8.60;99.90;;;;;;5065723;28;20319;-59
2021/12/01 11:10:24;;;;;;;;;;;8.60;99.90;;;;;;5048803;28;20470;-59
2021/12/01 11:12:57;;;;;;;;;;;8.60;99.90;;;;;;5049398;28;19977;-58
2021/12/01 11:15:26;;;;;;;;;;;8.60;99.90;;;;;;5063040;28;20184;-59
2021/12/01 11:17:54;;;;;;;;;;;8.80;99.90;;;;;;5063788;28;19921;-57
2021/12/01 11:20:39;;;;;;;;;;;8.70;99.90;;;;;;5066002;28;19904;-59
2021/12/01 11:23:10;;;;;;;;;;;8.70;99.90;;;;;;5064364;28;19911;-58
2021/12/01 11:25:37;;;;;;;;;;;8.70;99.90;;;;;;5066766;28;19905;-59
2021/12/01 11:28:08;;;;;;;;;;;8.60;99.90;;;;;;5066557;28;19911;-61
2021/12/01 11:30:35;;;;;;;;;;;8.70;99.90;;;;;;5049835;28;19909;-59
2021/12/01 11:33:02;;;;;;;;;;;8.70;99.90;;;;;;5069052;28;19913;-57
2021/12/01 11:35:29;;;;;;;;;;;8.70;99.90;;;;;;5068339;28;19909;-59
2021/12/01 11:37:57;;;;;;;;;;;8.70;99.90;;;;;;5069228;28;19999;-57
2021/12/01 11:40:28;;;;;;;;;;;8.70;99.90;;;;;;5053174;28;19904;-59
2021/12/01 11:42:55;;;;;;;;;;;8.80;99.90;;;;;;5066556;28;19932;-59
2021/12/01 11:45:23;;;;;;;;;;;8.80;99.90;;;;;;5066492;28;19912;-59
2021/12/01 11:47:50;;;;;;;;;;;8.80;99.90;;;;;;5064779;28;20016;-59
2021/12/01 11:50:37;;;;;;;;;;;8.80;99.90;;;;;;5065719;28;19913;-59
2021/12/01 11:53:10;;;;;;;;;;;8.90;99.90;;;;;;5048972;28;19912;-59
2021/12/01 11:55:56;;;;;;;;;;;9.00;99.90;;;;;;5065019;28;19974;-58
2021/12/01 11:58:45;;;;;;;0.98;0.70;;;9.00;99.90;;;;;;5046309;28;20427;-60
2021/12/01 12:01:23;;;;;;;0.90;0.80;;;9.00;99.90;;;;;;5063864;28;20429;-62
2021/12/01 12:04:00;;;;;;;0.90;0.90;;;8.90;99.90;;;;;;5063644;28;20492;-60
2021/12/01 12:06:31;;;;;;;1.58;0.98;;;8.80;99.90;;;;;;5063714;28;20390;-60
2021/12/01 12:08:57;;;;;;;1.13;1.02;;;8.80;99.90;;;;;;5045977;28;20911;-60
2021/12/01 12:11:43;;;;;;;1.08;1.02;;;8.70;99.90;;;;;;5065197;28;20485;-59
2021/12/01 12:14:30;;;;;;;1.33;1.13;;;8.70;99.90;;;;;;5065876;28;20417;-61
2021/12/01 12:17:15;;;;;;;3.97;1.40;;;8.70;99.90;;;;;;5064743;28;20523;-61
2021/12/01 12:20:08;;;;;;;2.47;1.30;;;8.60;99.90;;;;;;5064871;28;20392;-61
2021/12/01 12:22:39;;;;;;;1.80;1.30;;;8.50;99.90;;;;;;5049337;28;20680;-61
2021/12/01 12:25:09;;;;;;;2.03;1.42;;;8.50;99.90;;;;;;5064040;28;20783;-61
2021/12/01 12:27:47;;;;;;;1.30;1.20;;;8.60;99.90;;;;;;5063058;28;20820;-61
2021/12/01 12:30:28;;;;;;;2.17;1.30;;;8.60;99.90;;;;;;5047119;28;20386;-61
2021/12/01 12:33:15;;;;;;;2.83;1.20;;;8.70;99.90;;;;;;5066160;28;20458;-61
2021/12/01 12:35:44;;;;;;;2.17;1.25;;;8.70;99.90;;;;;;5058166;28;20858;-60
2021/12/01 12:38:11;;;;;;;1.08;0.88;;;8.80;99.90;;;;;;5066367;28;20397;-61
2021/12/01 12:40:39;;;;;;;2.72;1.08;;;8.80;99.90;;;;;;5068756;28;20393;-61
2021/12/01 12:43:14;;;;;;;1.88;0.80;;;8.90;99.90;;;;;;5069602;28;20389;-61
2021/12/01 12:46:12;;;;;;;0.70;0.70;;;9.00;99.90;;;;;;5069374;28;20440;-60
2021/12/01 12:48:42;;;;;;;;;;;9.00;99.90;;;;;;5052895;28;20039;-61
2021/12/01 12:51:26;;;;;;;;;;;9.00;99.90;;;;;;5070140;28;19967;-60
2021/12/01 12:54:08;;;;;;;0.60;0.60;;;9.00;99.90;;;;;;5070903;28;20209;-61
2021/12/01 12:56:50;;;;;;;0.90;0.70;;;9.00;99.90;;;;;;5071092;28;20700;-61
2021/12/01 12:59:16;;;;;;;1.60;0.77;;;9.00;99.90;;;;;;5069559;28;20184;-61
2021/12/01 13:01:42;;;;;;;1.90;0.87;;;9.00;99.90;;;;;;5053372;28;20255;-60
2021/12/01 13:04:28;;;;;;;2.07;0.80;;;9.00;99.90;;;;;;5069733;28;20331;-60
2021/12/01 13:06:55;;;;;;;1.13;0.73;;;9.00;99.90;;;;;;5066576;28;20211;-60
2021/12/01 13:09:22;;;;;;;2.90;0.73;;;9.10;99.90;;;;;;5068345;28;20166;-59
2021/12/01 13:11:58;;;;;;;0.77;0.60;;;9.10;99.90;;;;;;5069566;28;20204;-60
2021/12/01 13:14:25;;;;;;;3.53;0.67;;;9.10;99.90;;;;;;5070505;28;20169;-60
2021/12/01 13:17:00;;;;;;;3.63;1.10;;;9.20;99.90;;;;;;5053330;28;20232;-59
2021/12/01 13:19:27;;;;;;;;;;;9.20;99.90;;;;;;5052774;28;20036;-60
2021/12/01 13:21:53;;;;;;;4.53;1.00;;;9.10;99.90;;;;;;5051782;28;20171;-60
2021/12/01 13:24:20;;;;;;;2.53;0.60;;;9.10;99.90;;;;;;5067235;28;20204;-60
2021/12/01 13:26:47;;;;;;;;;;;9.10;99.90;;;;;;5068741;28;20029;-60
2021/12/01 13:29:16;;;;;;;1.77;0.90;;;9.10;99.90;;;;;;5069393;28;20653;-59
2021/12/01 13:31:45;;;;;;;1.83;0.70;;;9.10;99.90;;;;;;5055155;28;20165;-60
2021/12/01 13:34:29;;;;;;;4.13;0.70;;;9.20;99.90;;;;;;5071040;28;20201;-60
2021/12/01 13:37:01;;;;;;;0.67;0.60;;;9.20;99.90;;;;;;5036916;28;20299;-58
2021/12/01 13:39:29;;;;;;;2.47;1.20;;;9.20;99.90;;;;;;5050559;28;20174;-60
2021/12/01 13:42:00;;;;;;;2.43;0.80;;;9.10;99.90;;;;;;5048261;28;20235;-59
2021/12/01 13:44:34;;;;;;;1.50;0.93;;;9.10;99.90;;;;;;5060873;28;20183;-60
2021/12/01 13:47:03;;;;;;;3.40;0.63;;;9.10;99.90;;;;;;5062745;28;20187;-58
2021/12/01 13:49:39;;;;;;;2.97;0.70;;;9.10;99.90;;;;;;5062521;28;20208;-60
2021/12/01 13:52:05;;;;;;;1.90;1.03;;;9.10;99.90;;;;;;5063041;28;20620;-59
2021/12/01 13:54:31;;;;;;;7.47;1.10;;;9.10;99.90;;;;;;5046262;28;20569;-59
2021/12/01 13:57:06;;;;;;;1.70;0.70;;;9.10;99.90;;;;;;5063618;28;20246;-60
2021/12/01 13:59:46;;;;;;;1.33;0.63;;;9.20;99.90;;;;;;5060445;28;20425;-59
2021/12/01 14:02:19;;;;;;;4.80;0.97;;;9.10;99.90;;;;;;5043781;28;20597;-57
2021/12/01 14:04:47;;;;;;;;;;;9.10;99.90;;;;;;5060482;28;20025;-60
2021/12/01 14:07:13;;;;;;;;;;;;;;;;;;5062719;28;19904;-57
2021/12/01 14:10:02;;;;;;;;;;;9.20;99.90;;;;;;5046873;28;19993;-57
2021/12/01 14:12:30;;;;;;;;;;;9.20;99.90;;;;;;5061880;28;20488;-59
2021/12/01 14:14:56;;;;;;;;;;;9.20;99.90;;;;;;5061258;28;19920;-58